createdAt,value
2023-05-10T00:00:21.018Z,78
2023-05-10T00:30:11.310Z,80
2023-05-10T01:00:15.465Z,84
2023-05-10T01:30:15.255Z,83
2023-05-10T02:00:27.312Z,84
2023-05-10T02:30:11.318Z,82
2023-05-10T03:00:18.526Z,83
2023-05-10T03:30:02.064Z,85
2023-05-10T04:00:13.438Z,83
2023-05-10T04:30:16.956Z,81
2023-05-10T05:00:08.453Z,82
2023-05-10T05:30:12.496Z,83
2023-05-10T06:00:26.912Z,83
2023-05-10T06:30:18.215Z,84
2023-05-10T07:00:09.078Z,82
2023-05-10T07:30:09.975Z,80
2023-05-10T08:00:19.682Z,78
2023-05-10T08:30:03.532Z,83
2023-05-10T09:00:24.061Z,83
2023-05-10T09:30:16.509Z,75
2023-05-10T10:00:10.491Z,76
2023-05-10T10:30:30.258Z,81
2023-05-10T11:00:05.369Z,77
2023-05-10T11:30:25.537Z,73
2023-05-10T12:30:17.198Z,66
2023-05-10T13:00:08.975Z,63
2023-05-10T13:30:22.513Z,57
2023-05-10T14:00:02.031Z,66
2023-05-10T14:30:24.528Z,73
2023-05-10T15:00:07.664Z,76
2023-05-10T15:30:28.082Z,81
2023-05-10T16:00:30.072Z,74
2023-05-10T16:30:13.499Z,76
2023-05-10T17:00:21.229Z,76
2023-05-10T17:30:04.920Z,79
2023-05-10T18:00:15.534Z,79
2023-05-10T18:30:28.298Z,81
2023-05-10T19:00:09.825Z,81
2023-05-10T19:30:23.828Z,80
2023-05-10T20:00:04.851Z,81
2023-05-10T20:30:26.454Z,81
2023-05-10T21:00:09.614Z,81
2023-05-10T22:00:22.243Z,83
2023-05-10T22:30:03.123Z,83
2023-05-10T23:00:26.533Z,83
2023-05-10T23:30:17.534Z,82
